Time;durP1;ratioP1;P1;durP2;ratioP2;P2;SDS_P1;SDS_P2;PMS_P1;PMS_P2;Temp;Humidity;BMP_temperature;BMP_pressure;BME280_temperature;BME280_humidity;BME280_pressure;Samples;Min_cycle;Max_cycle;Signal;HPM_P1;HPM_P2
2022/01/18 00:00:51;;;;;;;0.73;0.73;;;7.60;99.90;;;;;;5002712;28;20427;-74
2022/01/18 00:03:17;;;;;;;0.60;0.57;;;7.70;99.90;;;;;;5012106;28;20473;-74
2022/01/18 00:05:44;;;;;;;0.60;0.60;;;7.70;99.90;;;;;;5010851;28;20734;-74
2022/01/18 00:08:10;;;;;;;0.60;0.60;;;7.70;99.90;;;;;;5010582;28;20186;-74
2022/01/18 00:10:36;;;;;;;0.60;0.60;;;7.70;99.90;;;;;;5011310;28;20434;-74
2022/01/18 00:15:36;;;;;;;0.60;0.60;;;7.70;99.90;;;;;;5010981;28;20236;-74
2022/01/18 00:20:41;;;;;;;0.70;0.70;;;7.80;99.90;;;;;;5010513;28;20423;-74
2022/01/18 00:23:06;;;;;;;1.70;1.60;;;7.80;99.90;;;;;;5011229;28;20427;-74
2022/01/18 00:25:34;;;;;;;3.50;0.80;;;7.80;99.90;;;;;;5011129;28;20504;-73
2022/01/18 00:28:00;;;;;;;0.60;0.60;;;7.80;99.90;;;;;;5011526;28;20188;-74
2022/01/18 00:35:41;;;;;;;0.60;0.50;;;8.00;99.90;;;;;;5011458;28;20884;-74
2022/01/18 00:38:16;;;;;;;0.70;0.70;;;8.00;99.90;;;;;;5010734;28;20991;-74
2022/01/18 00:40:42;;;;;;;1.17;1.07;;;7.90;99.90;;;;;;5011141;28;21080;-73
2022/01/18 00:43:07;;;;;;;0.93;0.93;;;7.90;99.90;;;;;;5010300;28;20434;-74
2022/01/18 00:45:33;;;;;;;1.10;1.00;;;7.90;99.90;;;;;;5009935;28;20184;-73
2022/01/18 00:48:00;;;;;;;0.60;0.50;;;7.90;99.90;;;;;;5010715;28;20192;-73
2022/01/18 00:50:30;;;;;;;0.60;0.53;;;7.80;99.90;;;;;;5005742;28;20177;-73
2022/01/18 00:52:56;;;;;;;0.60;0.53;;;7.90;99.90;;;;;;5011256;28;20446;-74
2022/01/18 00:55:23;;;;;;;0.60;0.50;;;7.90;99.90;;;;;;5011158;28;20546;-73
2022/01/18 00:57:48;;;;;;;0.60;0.60;;;8.00;99.90;;;;;;5010839;28;20511;-74
2022/01/18 01:00:14;;;;;;;0.60;0.60;;;8.00;99.90;;;;;;5010398;28;20849;-74
2022/01/18 01:02:40;;;;;;;0.60;0.60;;;8.00;99.90;;;;;;5013139;28;20533;-75
2022/01/18 01:05:06;;;;;;;0.60;0.53;;;8.00;99.90;;;;;;5012226;28;20196;-75
2022/01/18 01:07:31;;;;;;;0.60;0.50;;;8.00;99.90;;;;;;5012893;28;20585;-74
2022/01/18 01:09:57;;;;;;;0.60;0.60;;;7.90;99.90;;;;;;5010459;28;20442;-73
2022/01/18 01:12:26;;;;;;;0.60;0.60;;;8.00;99.90;;;;;;5010381;28;20563;-74
2022/01/18 01:14:53;;;;;;;1.10;1.00;;;7.90;99.90;;;;;;5011160;28;20183;-73
2022/01/18 01:17:35;;;;;;;0.60;0.60;;;7.90;99.90;;;;;;5008910;28;20450;-74
2022/01/18 01:34:10;;;;;;;0.60;0.60;;;8.00;99.90;;;;;;5018477;28;20902;-74
2022/01/18 01:36:47;;;;;;;0.60;0.60;;;8.00;99.90;;;;;;5027219;28;20941;-75
2022/01/18 01:42:15;;;;;;;0.73;0.73;;;8.00;99.90;;;;;;5010917;28;20847;-75
2022/01/18 01:44:45;;;;;;;2.93;2.73;;;7.90;99.90;;;;;;5008982;28;20427;-75
2022/01/18 01:47:18;;;;;;;0.60;0.50;;;7.90;99.90;;;;;;5010723;28;20427;-75
2022/01/18 01:49:44;;;;;;;0.60;0.60;;;7.90;99.90;;;;;;5010309;28;20434;-75
2022/01/18 01:52:10;;;;;;;0.70;0.60;;;7.90;99.90;;;;;;5010608;28;20708;-75
2022/01/18 01:54:37;;;;;;;1.37;1.33;;;7.80;99.90;;;;;;5010188;28;20451;-75
2022/01/18 01:57:03;;;;;;;0.67;0.60;;;7.80;99.90;;;;;;5018299;28;21009;-75
2022/01/18 01:59:29;;;;;;;0.60;0.60;;;7.90;99.90;;;;;;5010506;28;20426;-74
2022/01/18 02:01:55;;;;;;;0.60;0.60;;;7.90;99.90;;;;;;5009458;28;20439;-72
2022/01/18 02:04:20;;;;;;;0.60;0.53;;;8.00;99.90;;;;;;5011100;28;20438;-73
2022/01/18 02:06:46;;;;;;;1.07;0.90;;;7.90;99.90;;;;;;5011762;28;20257;-74
2022/01/18 02:09:12;;;;;;;0.60;0.60;;;7.90;99.90;;;;;;5011770;28;20180;-74
2022/01/18 02:11:38;;;;;;;0.60;0.60;;;7.90;99.90;;;;;;5018331;28;20180;-74
2022/01/18 02:14:06;;;;;;;0.60;0.60;;;7.80;99.90;;;;;;5010965;28;20787;-74
2022/01/18 02:22:04;;;;;;;0.60;0.60;;;7.80;99.90;;;;;;5009644;28;20433;-75
2022/01/18 02:24:29;;;;;;;0.60;0.53;;;7.80;99.90;;;;;;5010610;28;20464;-75
2022/01/18 02:26:55;;;;;;;0.63;0.60;;;7.80;99.90;;;;;;5009484;28;20458;-75
2022/01/18 02:29:21;;;;;;;0.63;0.60;;;7.80;99.90;;;;;;5010799;28;20180;-75
2022/01/18 02:31:47;;;;;;;0.60;0.50;;;7.80;99.90;;;;;;5011550;28;20233;-75
2022/01/18 02:34:19;;;;;;;0.60;0.50;;;7.80;99.90;;;;;;5010186;28;20172;-75
2022/01/18 02:36:45;;;;;;;0.60;0.60;;;7.80;99.90;;;;;;5011028;28;20553;-75
2022/01/18 02:39:12;;;;;;;2.03;1.30;;;7.70;99.90;;;;;;5011524;28;20437;-75
2022/01/18 02:41:38;;;;;;;0.60;0.60;;;7.70;99.90;;;;;;5010506;28;20430;-75
2022/01/18 02:44:08;;;;;;;0.90;0.90;;;7.70;99.90;;;;;;5011785;28;20410;-75
2022/01/18 02:46:34;;;;;;;0.90;0.90;;;7.70;99.90;;;;;;5017978;28;20830;-75
2022/01/18 02:49:01;;;;;;;0.60;0.60;;;7.60;99.90;;;;;;5018937;28;20777;-73
2022/01/18 02:51:27;;;;;;;0.60;0.60;;;7.70;99.90;;;;;;5010326;28;20431;-74
2022/01/18 02:54:05;;;;;;;0.60;0.50;;;7.70;99.90;;;;;;5011072;28;20946;-74
2022/01/18 02:56:48;;;;;;;0.77;0.77;;;7.60;99.90;;;;;;5010532;28;20945;-74
2022/01/18 02:59:21;;;;;;;1.40;0.93;;;7.60;99.90;;;;;;5011693;28;20434;-74
2022/01/18 03:04:39;;;;;;;0.70;0.70;;;7.50;99.90;;;;;;4991952;28;20439;-74
2022/01/18 03:07:05;;;;;;;2.00;1.90;;;7.50;99.90;;;;;;5000777;28;20441;-74
2022/01/18 03:09:31;;;;;;;0.80;0.80;;;7.50;99.90;;;;;;5010795;28;20459;-74
2022/01/18 03:11:57;;;;;;;1.07;0.80;;;7.50;99.90;;;;;;5010960;28;20406;-74
2022/01/18 03:14:23;;;;;;;2.00;1.90;;;7.50;99.90;;;;;;5009804;28;20431;-74
2022/01/18 03:16:49;;;;;;;2.33;2.23;;;7.50;99.90;;;;;;5008864;28;20277;-74
2022/01/18 03:19:15;;;;;;;0.60;0.53;;;7.50;99.90;;;;;;5007898;28;20438;-74
2022/01/18 03:21:41;;;;;;;0.60;0.60;;;7.50;99.90;;;;;;5009236;28;20396;-74
2022/01/18 03:29:35;;;;;;;2.43;2.23;;;7.50;99.90;;;;;;5012093;28;20429;-74
2022/01/18 03:32:00;;;;;;;0.80;0.80;;;7.40;99.90;;;;;;5012394;28;20411;-74
2022/01/18 03:34:26;;;;;;;0.60;0.60;;;7.40;99.90;;;;;;5012468;28;20185;-74
2022/01/18 03:36:53;;;;;;;0.60;0.60;;;7.40;99.90;;;;;;5012113;28;20200;-74
2022/01/18 03:39:19;;;;;;;0.70;0.67;;;7.40;99.90;;;;;;5012207;28;20172;-74
2022/01/18 03:41:51;;;;;;;0.60;0.50;;;7.40;99.90;;;;;;5012371;28;20419;-74
2022/01/18 03:44:18;;;;;;;0.60;0.60;;;7.50;99.90;;;;;;5012488;28;20415;-74
2022/01/18 03:46:43;;;;;;;0.60;0.60;;;7.50;99.90;;;;;;5011948;28;20550;-74
2022/01/18 03:49:09;;;;;;;0.60;0.50;;;7.40;99.90;;;;;;5012518;28;20451;-74
2022/01/18 03:51:34;;;;;;;0.60;0.60;;;7.50;99.90;;;;;;5012260;28;20169;-74
2022/01/18 03:54:00;;;;;;;0.60;0.50;;;7.40;99.90;;;;;;5012019;28;20192;-74
2022/01/18 03:56:26;;;;;;;0.60;0.60;;;7.40;99.90;;;;;;5012427;28;20226;-74
2022/01/18 03:58:51;;;;;;;0.67;0.60;;;7.40;99.90;;;;;;5012230;28;20174;-75
2022/01/18 04:01:17;;;;;;;1.13;1.10;;;7.40;99.90;;;;;;5012312;28;20175;-74
2022/01/18 04:03:42;;;;;;;0.60;0.60;;;7.40;99.90;;;;;;5012253;28;20587;-74
2022/01/18 04:06:08;;;;;;;0.60;0.60;;;7.40;99.90;;;;;;5012092;28;20223;-73
2022/01/18 04:08:33;;;;;;;0.60;0.50;;;7.50;99.90;;;;;;5011770;28;20200;-73
2022/01/18 04:10:59;;;;;;;1.50;1.47;;;7.60;99.90;;;;;;5011894;28;20240;-73
2022/01/18 04:13:25;;;;;;;1.53;1.43;;;7.50;99.90;;;;;;5011718;28;20187;-73
2022/01/18 04:15:50;;;;;;;1.23;1.17;;;7.50;99.90;;;;;;5011533;28;20202;-73
2022/01/18 04:28:56;;;;;;;0.80;0.80;;;7.50;99.90;;;;;;5011319;28;20786;-73
2022/01/18 04:31:24;;;;;;;0.70;0.60;;;7.50;99.90;;;;;;5010875;28;20428;-74
2022/01/18 04:33:50;;;;;;;1.13;0.90;;;7.50;99.90;;;;;;5011834;28;20944;-74
2022/01/18 04:36:15;;;;;;;0.60;0.50;;;7.60;99.90;;;;;;5012820;28;20471;-74
2022/01/18 04:38:41;;;;;;;1.53;1.43;;;7.60;99.90;;;;;;5012832;28;20203;-74
2022/01/18 04:41:10;;;;;;;1.57;1.47;;;7.50;99.90;;;;;;5012584;28;20423;-74
2022/01/18 04:44:11;;;;;;;0.70;0.70;;;7.50;99.90;;;;;;5012077;28;20687;-74
2022/01/18 04:49:21;;;;;;;0.60;0.60;;;7.50;99.90;;;;;;5012829;28;20961;-74
2022/01/18 04:51:46;;;;;;;0.60;0.57;;;7.50;99.90;;;;;;5011515;28;20427;-74
2022/01/18 04:54:13;;;;;;;0.60;0.53;;;7.50;99.90;;;;;;5010951;28;20219;-74
2022/01/18 04:59:06;;;;;;;0.60;0.50;;;7.50;99.90;;;;;;5011476;28;20411;-74
2022/01/18 05:01:32;;;;;;;0.60;0.60;;;7.40;99.90;;;;;;5010996;28;20184;-74
2022/01/18 05:03:58;;;;;;;0.60;0.50;;;7.50;99.90;;;;;;5011290;28;20428;-74
2022/01/18 05:06:23;;;;;;;2.03;1.90;;;7.50;99.90;;;;;;5011639;28;20212;-73
2022/01/18 05:08:49;;;;;;;2.00;1.10;;;7.50;99.90;;;;;;5009381;28;20176;-73
2022/01/18 05:11:18;;;;;;;0.70;0.60;;;7.60;99.90;;;;;;5010544;28;20995;-73
2022/01/18 05:23:54;;;;;;;1.07;1.07;;;7.50;99.90;;;;;;5010772;28;20808;-72
2022/01/18 05:26:24;;;;;;;0.70;0.70;;;7.40;99.90;;;;;;5010227;28;20439;-74
2022/01/18 05:28:50;;;;;;;0.60;0.50;;;7.40;99.90;;;;;;5010095;28;20427;-73
2022/01/18 05:31:16;;;;;;;0.90;0.90;;;7.40;99.90;;;;;;5010754;28;21041;-73
2022/01/18 05:33:42;;;;;;;0.60;0.60;;;7.30;99.90;;;;;;5010091;28;20941;-73
2022/01/18 05:36:09;;;;;;;0.70;0.70;;;7.30;99.90;;;;;;5010665;28;20459;-73
2022/01/18 05:38:35;;;;;;;0.60;0.60;;;7.40;99.90;;;;;;5015727;28;20419;-74
2022/01/18 05:41:03;;;;;;;0.60;0.60;;;7.40;99.90;;;;;;4994184;28;20467;-73
2022/01/18 05:43:28;;;;;;;0.60;0.60;;;7.30;99.90;;;;;;5016292;28;20801;-75
2022/01/18 05:45:54;;;;;;;0.60;0.60;;;7.30;99.90;;;;;;5010322;28;20411;-74
2022/01/18 05:48:19;;;;;;;0.60;0.60;;;7.30;99.90;;;;;;5009887;28;20263;-73
2022/01/18 05:50:45;;;;;;;3.57;0.87;;;7.30;99.90;;;;;;5005015;28;20172;-73
2022/01/18 05:53:10;;;;;;;0.63;0.63;;;7.30;99.90;;;;;;5010228;28;20697;-73
2022/01/18 05:55:36;;;;;;;2.50;1.03;;;7.20;99.90;;;;;;5014662;28;20197;-72
2022/01/18 05:58:02;;;;;;;2.77;1.03;;;7.20;99.90;;;;;;5010134;28;20188;-73
2022/01/18 06:00:30;;;;;;;1.10;1.00;;;7.20;99.90;;;;;;5010088;28;20196;-73
2022/01/18 06:08:06;;;;;;;0.80;0.77;;;7.10;99.90;;;;;;5009847;28;20478;-74
2022/01/18 06:10:32;;;;;;;0.60;0.60;;;7.10;99.90;;;;;;5009818;28;20518;-74
2022/01/18 06:13:01;;;;;;;1.90;1.50;;;7.10;99.90;;;;;;5009972;28;20180;-74
2022/01/18 06:15:27;;;;;;;0.87;0.80;;;7.10;99.90;;;;;;5009720;28;20191;-74
2022/01/18 06:17:53;;;;;;;0.60;0.50;;;7.10;99.90;;;;;;5009505;28;20463;-74
2022/01/18 06:20:18;;;;;;;0.60;0.60;;;7.00;99.90;;;;;;5009619;28;20431;-74
2022/01/18 06:22:44;;;;;;;1.73;1.63;;;7.10;99.90;;;;;;5009528;28;20168;-73
2022/01/18 06:25:10;;;;;;;0.60;0.50;;;7.10;99.90;;;;;;5009486;28;20173;-74
2022/01/18 06:27:36;;;;;;;0.80;0.80;;;7.10;99.90;;;;;;5009470;28;20450;-73
2022/01/18 06:30:03;;;;;;;0.60;0.50;;;7.10;99.90;;;;;;5009519;28;20177;-73
2022/01/18 06:32:28;;;;;;;0.80;0.80;;;7.20;99.90;;;;;;5009575;28;20172;-74
2022/01/18 06:34:54;;;;;;;1.83;1.30;;;7.20;99.90;;;;;;5009445;28;20816;-74
2022/01/18 06:37:19;;;;;;;0.60;0.60;;;7.30;99.90;;;;;;5009254;28;20240;-73
2022/01/18 06:39:45;;;;;;;0.73;0.73;;;7.20;99.90;;;;;;5008115;28;20275;-73
2022/01/18 06:42:12;;;;;;;0.60;0.57;;;7.20;99.90;;;;;;5009565;28;20168;-73
2022/01/18 06:44:38;;;;;;;0.60;0.60;;;7.20;99.90;;;;;;5009547;28;20195;-73
2022/01/18 06:47:04;;;;;;;1.47;1.10;;;7.20;99.90;;;;;;5008929;28;20967;-73
2022/01/18 06:49:29;;;;;;;2.10;2.00;;;7.10;99.90;;;;;;5007938;28;20431;-74
2022/01/18 06:51:55;;;;;;;2.83;2.73;;;7.10;99.90;;;;;;5008582;28;20172;-73
2022/01/18 06:54:20;;;;;;;0.60;0.60;;;7.10;99.90;;;;;;5008858;28;20184;-73
2022/01/18 06:56:49;;;;;;;1.23;1.23;;;7.10;99.90;;;;;;5009034;28;20211;-73
2022/01/18 06:59:16;;;;;;;0.63;0.63;;;7.00;99.90;;;;;;4989743;28;20169;-74
2022/01/18 07:01:42;;;;;;;1.07;1.07;;;7.00;99.90;;;;;;5005320;28;20411;-73
2022/01/18 07:04:08;;;;;;;0.60;0.57;;;7.00;99.90;;;;;;5007531;28;20842;-74
2022/01/18 07:06:34;;;;;;;0.60;0.60;;;7.00;99.90;;;;;;5007773;28;20249;-73
2022/01/18 07:09:00;;;;;;;0.63;0.63;;;7.00;99.90;;;;;;5008880;28;20472;-75
2022/01/18 07:11:26;;;;;;;0.80;0.80;;;7.00;99.90;;;;;;5009351;28;20420;-74
2022/01/18 07:13:53;;;;;;;1.67;0.93;;;7.00;99.90;;;;;;5008940;28;20423;-74
2022/01/18 07:16:18;;;;;;;0.83;0.80;;;7.00;99.90;;;;;;5009144;28;20243;-73
2022/01/18 07:18:44;;;;;;;0.60;0.50;;;6.90;99.90;;;;;;5007131;28;20443;-74
2022/01/18 07:21:10;;;;;;;0.80;0.80;;;7.00;99.90;;;;;;5008626;28;20176;-74
2022/01/18 07:23:37;;;;;;;0.60;0.60;;;7.00;99.90;;;;;;5009002;28;20172;-72
2022/01/18 07:26:03;;;;;;;1.17;1.07;;;7.10;99.90;;;;;;5008695;28;20426;-73
2022/01/18 07:28:28;;;;;;;1.10;0.90;;;7.00;99.90;;;;;;5007071;28;20813;-73
2022/01/18 07:30:54;;;;;;;4.63;1.70;;;7.00;99.90;;;;;;5009091;28;20414;-73
2022/01/18 07:33:20;;;;;;;0.80;0.80;;;7.00;99.90;;;;;;5008785;28;20559;-73
2022/01/18 07:35:46;;;;;;;0.93;0.93;;;7.00;99.90;;;;;;5008761;28;20203;-73
2022/01/18 07:38:15;;;;;;;1.13;1.13;;;7.00;99.90;;;;;;5008321;28;20536;-73
2022/01/18 07:40:42;;;;;;;0.70;0.70;;;7.10;99.90;;;;;;5008596;28;20795;-74
2022/01/18 07:43:08;;;;;;;2.23;1.73;;;7.10;99.90;;;;;;5008406;28;20427;-74
2022/01/18 07:45:34;;;;;;;1.57;1.13;;;7.10;99.90;;;;;;5008821;28;20934;-74
2022/01/18 07:48:00;;;;;;;0.60;0.60;;;7.00;99.90;;;;;;5007748;28;20439;-74
2022/01/18 07:50:26;;;;;;;0.60;0.60;;;7.10;99.90;;;;;;5008416;28;20198;-74
2022/01/18 07:52:52;;;;;;;1.50;1.17;;;7.10;99.90;;;;;;5008459;28;20255;-74
2022/01/18 07:55:17;;;;;;;0.70;0.70;;;7.10;99.90;;;;;;5008389;28;20530;-74
2022/01/18 07:57:43;;;;;;;0.60;0.57;;;7.10;99.90;;;;;;5008390;28;20450;-74
2022/01/18 08:00:13;;;;;;;0.70;0.70;;;7.10;99.90;;;;;;5008686;28;20703;-74
2022/01/18 08:02:40;;;;;;;1.90;1.80;;;7.10;99.90;;;;;;5008562;28;20415;-74
2022/01/18 08:05:07;;;;;;;0.60;0.57;;;7.20;99.90;;;;;;5008641;28;20774;-74
2022/01/18 08:07:33;;;;;;;0.60;0.60;;;7.20;99.90;;;;;;5008353;28;20450;-74
2022/01/18 08:09:58;;;;;;;1.13;1.03;;;7.20;99.90;;;;;;5008480;28;20407;-74
2022/01/18 08:12:24;;;;;;;0.70;0.70;;;7.30;99.90;;;;;;5008118;28;20169;-74
2022/01/18 08:14:53;;;;;;;0.60;0.57;;;7.30;99.90;;;;;;5009334;28;20548;-74
2022/01/18 08:17:20;;;;;;;0.60;0.57;;;7.30;99.90;;;;;;5011573;28;20532;-74
2022/01/18 08:19:45;;;;;;;2.40;2.30;;;7.40;99.90;;;;;;5011302;28;20426;-73
2022/01/18 08:22:11;;;;;;;1.77;1.07;;;7.40;99.90;;;;;;5011857;28;20412;-73
2022/01/18 08:24:38;;;;;;;0.60;0.50;;;7.40;99.90;;;;;;5011797;28;20186;-74
2022/01/18 08:27:04;;;;;;;3.67;3.37;;;7.40;99.90;;;;;;5011358;28;20199;-74
2022/01/18 08:29:30;;;;;;;1.17;1.07;;;7.50;99.90;;;;;;5010990;28;20780;-72
2022/01/18 08:31:55;;;;;;;0.70;0.70;;;7.50;99.90;;;;;;5011190;28;20411;-75
2022/01/18 08:34:21;;;;;;;0.60;0.60;;;7.60;99.90;;;;;;5011181;28;20427;-72
2022/01/18 08:36:47;;;;;;;0.60;0.60;;;7.70;99.90;;;;;;5011008;28;20200;-72
2022/01/18 08:39:12;;;;;;;0.80;0.80;;;7.70;99.90;;;;;;5011118;28;20211;-73
2022/01/18 08:41:39;;;;;;;3.80;1.00;;;7.80;99.90;;;;;;5011578;28;20391;-74
2022/01/18 08:44:05;;;;;;;3.43;3.23;;;7.80;99.90;;;;;;5010938;28;20524;-73
2022/01/18 08:46:31;;;;;;;0.60;0.60;;;7.80;99.90;;;;;;5019751;28;20446;-73
2022/01/18 08:48:57;;;;;;;0.60;0.60;;;7.90;99.90;;;;;;5028939;28;20802;-74
2022/01/18 08:51:23;;;;;;;0.60;0.60;;;8.00;99.90;;;;;;5025041;28;20187;-74
2022/01/18 08:53:50;;;;;;;0.60;0.60;;;8.00;99.90;;;;;;5010335;28;20259;-74
2022/01/18 08:56:17;;;;;;;0.60;0.60;;;8.00;99.90;;;;;;5006701;28;21010;-74
2022/01/18 08:58:43;;;;;;;1.37;0.83;;;8.10;99.90;;;;;;5011130;28;20403;-74
2022/01/18 09:01:09;;;;;;;0.60;0.60;;;8.30;99.90;;;;;;5010565;28;20447;-74
2022/01/18 09:03:34;;;;;;;1.00;1.00;;;8.30;99.90;;;;;;5011208;28;20446;-74
2022/01/18 09:06:03;;;;;;;1.13;1.13;;;8.30;99.90;;;;;;5010774;28;20175;-74
2022/01/18 09:08:28;;;;;;;0.80;0.70;;;8.40;99.90;;;;;;5010752;28;20172;-74
2022/01/18 09:10:54;;;;;;;1.03;0.97;;;8.50;99.90;;;;;;5011121;28;21030;-74
2022/01/18 09:13:22;;;;;;;0.70;0.70;;;8.60;99.90;;;;;;5010839;28;20212;-73
2022/01/18 09:15:48;;;;;;;0.93;0.93;;;8.70;99.90;;;;;;5010684;28;20205;-74
2022/01/18 09:18:14;;;;;;;0.70;0.70;;;8.70;99.90;;;;;;5010242;28;20412;-74
2022/01/18 09:20:39;;;;;;;2.23;1.33;;;8.80;99.90;;;;;;5010745;28;20584;-74
2022/01/18 09:23:06;;;;;;;0.67;0.50;;;8.80;99.90;;;;;;5010354;28;20180;-74
2022/01/18 09:25:32;;;;;;;1.00;1.00;;;8.90;99.90;;;;;;5010369;28;20181;-74
2022/01/18 09:27:58;;;;;;;0.67;0.60;;;8.90;99.90;;;;;;5010477;28;20439;-74
2022/01/18 09:30:26;;;;;;;10.13;2.03;;;9.00;99.90;;;;;;5010447;28;20529;-74
2022/01/18 09:32:53;;;;;;;1.80;1.70;;;9.10;99.90;;;;;;5010377;28;20480;-72
2022/01/18 09:35:19;;;;;;;0.67;0.60;;;9.00;99.90;;;;;;5010472;28;20420;-72
2022/01/18 09:37:46;;;;;;;0.90;0.87;;;9.20;99.90;;;;;;5010476;28;20472;-74
2022/01/18 09:40:16;;;;;;;0.67;0.57;;;9.10;99.90;;;;;;5010186;28;20431;-74
2022/01/18 09:42:43;;;;;;;0.67;0.60;;;9.30;99.90;;;;;;5009306;28;20449;-74
2022/01/18 09:45:12;;;;;;;1.10;0.90;;;9.40;99.90;;;;;;5010494;28;20415;-74
2022/01/18 09:47:40;;;;;;;1.73;1.00;;;9.50;99.90;;;;;;5010185;28;20518;-74
2022/01/18 09:50:09;;;;;;;0.70;0.60;;;9.70;99.90;;;;;;5010008;28;20543;-74
2022/01/18 09:52:35;;;;;;;2.00;1.23;;;9.80;99.90;;;;;;5023781;28;20425;-73
2022/01/18 09:55:02;;;;;;;1.53;1.43;;;9.90;99.90;;;;;;5008874;28;20526;-73
2022/01/18 09:57:28;;;;;;;2.10;1.07;;;10.00;99.90;;;;;;5009983;28;20746;-73
2022/01/18 09:59:53;;;;;;;3.53;3.33;;;10.20;99.90;;;;;;5010103;28;20407;-73
2022/01/18 10:02:19;;;;;;;0.67;0.60;;;10.30;99.90;;;;;;5009919;28;20416;-73
2022/01/18 10:04:47;;;;;;;1.20;1.10;;;10.50;99.90;;;;;;5010292;28;20161;-72
2022/01/18 10:07:13;;;;;;;4.50;1.93;;;10.60;99.90;;;;;;5009941;28;20297;-73
2022/01/18 10:09:39;;;;;;;1.37;0.93;;;10.60;99.90;;;;;;5009528;28;20926;-74
2022/01/18 10:12:08;;;;;;;1.40;1.00;;;10.70;99.90;;;;;;5009930;28;20221;-73
2022/01/18 10:14:36;;;;;;;0.70;0.70;;;10.80;99.90;;;;;;5009335;28;20424;-73
2022/01/18 10:17:03;;;;;;;8.13;1.57;;;11.10;99.90;;;;;;5030646;28;20897;-73
2022/01/18 10:19:31;;;;;;;1.90;1.80;;;11.20;99.90;;;;;;5048321;28;20971;-73
2022/01/18 10:22:08;;;;;;;1.50;1.40;;;11.30;99.90;;;;;;5008880;28;20406;-73
2022/01/18 10:24:34;;;;;;;4.40;1.23;;;11.20;99.90;;;;;;4990454;28;20413;-73
2022/01/18 10:26:59;;;;;;;2.10;1.37;;;11.30;99.90;;;;;;4993318;28;20459;-73
2022/01/18 10:29:28;;;;;;;1.00;1.00;;;11.40;99.90;;;;;;5009561;28;20674;-73
2022/01/18 10:37:03;;;;;;;1.37;1.27;;;11.20;99.90;;;;;;5009517;28;20202;-73
2022/01/18 10:39:32;;;;;;;1.90;1.80;;;11.30;99.90;;;;;;5009444;28;20429;-73
2022/01/18 10:41:59;;;;;;;0.90;0.90;;;11.20;99.90;;;;;;5009601;28;20491;-74
2022/01/18 10:44:25;;;;;;;1.33;1.33;;;11.30;99.90;;;;;;5009311;28;20425;-73
2022/01/18 10:46:54;;;;;;;1.90;1.80;;;11.30;99.90;;;;;;5009130;28;20530;-73
2022/01/18 10:49:29;;;;;;;1.87;0.80;;;11.20;99.90;;;;;;5009207;28;20184;-74
2022/01/18 10:51:57;;;;;;;0.70;0.70;;;11.30;99.90;;;;;;5009572;28;20403;-73
2022/01/18 10:54:36;;;;;;;0.70;0.60;;;11.30;99.90;;;;;;5009452;28;20427;-73
2022/01/18 10:57:03;;;;;;;1.73;1.63;;;11.20;99.90;;;;;;5009155;28;20466;-73
2022/01/18 10:59:30;;;;;;;1.33;1.23;;;11.10;99.90;;;;;;5009282;28;20518;-73
2022/01/18 11:02:17;;;;;;;4.33;0.80;;;11.00;99.90;;;;;;5008693;28;20866;-73
2022/01/18 11:04:51;;;;;;;0.70;0.70;;;11.00;99.90;;;;;;5009467;28;20179;-73
2022/01/18 11:07:20;;;;;;;2.90;1.00;;;11.10;99.90;;;;;;5009370;28;20822;-73
2022/01/18 11:09:46;;;;;;;1.93;1.83;;;11.20;99.90;;;;;;5009119;28;20776;-73
2022/01/18 11:12:12;;;;;;;1.00;1.00;;;11.30;99.90;;;;;;5007870;28;20433;-74
2022/01/18 11:14:43;;;;;;;2.20;2.10;;;11.30;99.90;;;;;;5008684;28;20428;-74
2022/01/18 11:17:11;;;;;;;0.80;0.80;;;11.40;99.90;;;;;;5008973;28;20244;-73
2022/01/18 11:19:38;;;;;;;0.70;0.70;;;11.50;99.90;;;;;;5008935;28;20419;-74
2022/01/18 11:22:08;;;;;;;1.60;1.50;;;11.60;99.90;;;;;;5008882;28;20427;-72
2022/01/18 11:24:36;;;;;;;1.77;1.23;;;11.70;99.90;;;;;;5009257;28;20450;-75
2022/01/18 11:27:07;;;;;;;0.97;0.97;;;11.90;99.90;;;;;;5008960;28;20427;-72
2022/01/18 11:29:34;;;;;;;1.33;1.23;;;12.20;99.90;;;;;;5008705;28;20484;-72
2022/01/18 11:32:01;;;;;;;1.27;1.17;;;12.30;99.90;;;;;;5024283;28;20427;-72
2022/01/18 11:34:34;;;;;;;0.67;0.60;;;12.20;99.90;;;;;;5008914;28;20492;-71
2022/01/18 11:37:28;;;;;;;0.70;0.60;;;12.10;99.90;;;;;;5008966;28;20526;-72
2022/01/18 11:40:01;;;;;;;0.80;0.80;;;12.10;99.90;;;;;;5008345;28;20466;-71
2022/01/18 11:42:46;;;;;;;1.30;1.10;;;12.20;99.90;;;;;;5002996;28;20822;-72
2022/01/18 11:45:31;;;;;;;3.13;3.03;;;12.20;99.90;;;;;;4989407;28;20431;-74
2022/01/18 11:48:08;;;;;;;0.73;0.73;;;12.20;99.90;;;;;;4997776;28;20446;-74
2022/01/18 11:50:38;;;;;;;1.80;1.10;;;12.30;99.90;;;;;;5020403;28;20436;-74
2022/01/18 11:53:22;;;;;;;1.07;0.97;;;12.50;99.90;;;;;;4992729;28;20431;-74
2022/01/18 11:55:48;;;;;;;1.20;1.03;;;12.30;99.90;;;;;;4992933;28;20499;-74
2022/01/18 11:58:14;;;;;;;1.77;1.67;;;12.50;99.90;;;;;;5010658;28;20450;-73
2022/01/18 12:00:49;;;;;;;3.23;1.80;;;12.60;99.90;;;;;;5012180;28;20169;-74
2022/01/18 12:03:18;;;;;;;1.43;1.33;;;12.80;99.90;;;;;;5027318;28;20410;-74
2022/01/18 12:05:44;;;;;;;4.07;1.23;;;12.90;99.90;;;;;;5007086;28;20995;-72
2022/01/18 12:08:27;;;;;;;3.27;1.83;;;13.10;99.90;;;;;;5011857;28;21040;-71
2022/01/18 12:10:53;;;;;;;3.33;2.40;;;13.20;99.90;;;;;;5012078;28;20418;-74
2022/01/18 12:13:36;;;;;;;1.53;1.43;;;13.60;99.90;;;;;;5012055;28;20411;-74
2022/01/18 12:16:18;;;;;;;1.40;1.30;;;13.70;99.90;;;;;;5012254;28;20677;-75
2022/01/18 12:18:54;;;;;;;3.63;2.07;;;13.70;99.90;;;;;;5010530;28;20462;-75
2022/01/18 12:21:24;;;;;;;1.40;1.30;;;13.60;99.90;;;;;;5011930;28;20434;-73
2022/01/18 12:23:50;;;;;;;1.70;1.60;;;13.90;99.90;;;;;;5012352;28;20422;-75
2022/01/18 12:26:34;;;;;;;3.03;0.97;;;14.10;99.90;;;;;;5012259;28;20488;-73
2022/01/18 12:29:21;;;;;;;1.90;1.80;;;14.30;99.90;;;;;;5012291;28;20407;-73
2022/01/18 12:34:24;;;;;;;2.70;2.50;;;14.60;99.90;;;;;;5012192;28;20569;-73
2022/01/18 12:36:51;;;;;;;3.83;3.30;;;14.40;99.90;;;;;;5011813;28;20215;-73
2022/01/18 12:39:17;;;;;;;3.83;1.57;;;15.00;99.90;;;;;;5011657;28;20927;-73
2022/01/18 12:41:47;;;;;;;1.40;1.30;;;16.50;99.90;;;;;;5012233;28;20426;-73
2022/01/18 12:44:21;;;;;;;2.83;1.80;;;17.80;99.90;;;;;;5012090;28;20509;-74
2022/01/18 12:46:58;;;;;;;1.70;1.60;;;19.20;99.90;;;;;;4992415;28;20469;-74
2022/01/18 12:49:26;;;;;;;1.63;1.53;;;20.10;93.90;;;;;;4992080;28;20890;-74
2022/01/18 12:51:56;;;;;;;1.90;1.77;;;20.90;81.90;;;;;;5009339;28;20427;-74
2022/01/18 12:54:35;;;;;;;3.87;2.67;;;21.70;75.30;;;;;;5011400;28;20443;-74
2022/01/18 12:57:14;;;;;;;4.80;3.17;;;21.90;70.40;;;;;;5011461;28;20466;-74
2022/01/18 13:00:03;;;;;;;2.50;2.00;;;23.20;66.40;;;;;;5011020;28;20410;-73
2022/01/18 13:02:29;;;;;;;1.77;1.67;;;23.80;60.80;;;;;;5010767;28;20438;-73
2022/01/18 13:04:56;;;;;;;2.70;1.97;;;23.90;59.50;;;;;;5010816;28;20924;-73
2022/01/18 13:07:21;;;;;;;1.67;1.57;;;24.10;58.80;;;;;;5010901;28;20212;-73
2022/01/18 13:09:57;;;;;;;2.53;2.33;;;23.90;57.70;;;;;;5010823;28;20419;-73
2022/01/18 13:12:36;;;;;;;1.30;1.20;;;24.30;57.00;;;;;;5011160;28;20259;-73
2022/01/18 13:15:05;;;;;;;3.23;2.63;;;24.50;56.70;;;;;;5011062;28;20411;-73
2022/01/18 13:23:25;;;;;;;2.27;1.80;;;23.00;55.80;;;;;;5011046;28;20415;-73
2022/01/18 13:25:57;;;;;;;0.90;0.80;;;22.10;56.10;;;;;;5010735;28;20431;-72
2022/01/18 13:28:32;;;;;;;1.73;1.63;;;22.10;57.40;;;;;;5010547;28;20439;-72
2022/01/18 13:31:16;;;;;;;1.37;1.27;;;22.00;58.00;;;;;;5009589;28;20442;-74
2022/01/18 13:33:52;;;;;;;4.33;3.93;;;21.90;58.80;;;;;;5011570;28;20419;-74
2022/01/18 13:36:20;;;;;;;1.47;1.37;;;22.00;58.60;;;;;;5013030;28;20499;-74
2022/01/18 13:38:45;;;;;;;1.57;1.47;;;21.10;58.20;;;;;;5013171;28;20403;-74
2022/01/18 13:41:11;;;;;;;2.03;1.93;;;21.30;59.70;;;;;;5012140;28;20437;-74
2022/01/18 13:43:36;;;;;;;2.33;1.30;;;21.10;59.90;;;;;;5012363;28;20184;-74
2022/01/18 13:46:02;;;;;;;3.07;2.73;;;21.80;59.50;;;;;;5012141;28;20179;-74
2022/01/18 13:48:34;;;;;;;2.53;2.33;;;21.50;59.50;;;;;;5011785;28;20791;-75
2022/01/18 13:51:14;;;;;;;2.03;1.80;;;21.10;59.30;;;;;;5010576;28;20171;-74
2022/01/18 13:53:40;;;;;;;5.73;2.03;;;21.50;59.30;;;;;;5010625;28;20514;-75
2022/01/18 13:56:16;;;;;;;3.07;1.50;;;21.50;59.40;;;;;;5010104;28;20463;-74
2022/01/18 13:58:45;;;;;;;3.87;2.10;;;21.00;59.40;;;;;;5010210;28;20395;-74
2022/01/18 14:01:20;;;;;;;2.27;1.30;;;20.30;59.10;;;;;;5009204;28;20403;-74
2022/01/18 14:03:51;;;;;;;5.53;1.53;;;18.70;60.70;;;;;;5009930;28;20427;-73
2022/01/18 14:06:17;;;;;;;1.50;1.33;;;17.30;79.10;;;;;;5009992;28;20443;-73
2022/01/18 14:08:52;;;;;;;1.30;1.20;;;16.40;99.90;;;;;;5010136;28;20962;-73
2022/01/18 14:11:24;;;;;;;3.37;2.30;;;15.70;99.90;;;;;;5010217;28;20430;-73
2022/01/18 14:13:53;;;;;;;7.03;1.27;;;14.70;99.90;;;;;;5008852;28;20424;-73
2022/01/18 14:16:28;;;;;;;1.80;1.33;;;13.90;99.90;;;;;;5009458;28;20532;-73
2022/01/18 14:18:56;;;;;;;2.27;2.17;;;13.60;99.90;;;;;;5011019;28;20399;-74
2022/01/18 14:21:26;;;;;;;0.80;0.80;;;13.10;99.90;;;;;;5010984;28;20919;-74
2022/01/18 14:24:12;;;;;;;12.87;2.80;;;12.80;99.90;;;;;;5011822;28;20419;-74